Time;durP1;ratioP1;P1;durP2;ratioP2;P2;SDS_P1;SDS_P2;PMS_P1;PMS_P2;Temp;Humidity;BMP_temperature;BMP_pressure;BME280_temperature;BME280_humidity;BME280_pressure;Samples;Min_cycle;Max_cycle;Signal;HPM_P1;HPM_P2
2023/08/02 00:00:33;;;;;;;6.15;1.10;;;15.30;99.90;;;;;;5013944;28;20052;-86
2023/08/02 00:03:00;;;;;;;4.10;1.10;;;15.30;99.90;;;;;;5046575;28;20132;-86
2023/08/02 00:05:26;;;;;;;3.22;1.02;;;15.30;99.90;;;;;;5046313;28;20185;-86
2023/08/02 00:07:53;;;;;;;3.78;1.20;;;15.20;99.90;;;;;;5013664;28;20487;-86
2023/08/02 00:10:20;;;;;;;2.90;1.02;;;15.20;99.90;;;;;;4998972;28;20064;-86
2023/08/02 00:12:50;;;;;;;7.05;1.30;;;15.20;99.90;;;;;;5033609;28;20157;-86
2023/08/02 00:15:18;;;;;;;4.68;1.10;;;15.20;99.90;;;;;;5034095;28;20096;-86
2023/08/02 00:17:45;;;;;;;3.13;1.05;;;15.20;99.90;;;;;;5033400;28;20482;-86
2023/08/02 00:20:12;;;;;;;3.83;1.20;;;15.20;99.90;;;;;;5033817;28;20042;-86
2023/08/02 00:22:40;;;;;;;5.95;1.77;;;15.20;99.90;;;;;;5033595;28;20041;-86
2023/08/02 00:25:07;;;;;;;3.58;1.35;;;15.20;99.90;;;;;;5050414;28;20076;-86
2023/08/02 00:27:33;;;;;;;5.65;1.55;;;15.20;99.90;;;;;;5033538;28;20147;-86
2023/08/02 00:30:00;;;;;;;5.15;1.90;;;15.20;99.90;;;;;;5016909;28;20042;-85
2023/08/02 00:32:27;;;;;;;7.22;2.13;;;15.20;99.90;;;;;;5017653;28;20034;-86
2023/08/02 00:34:54;;;;;;;9.38;1.73;;;15.20;99.90;;;;;;5017025;28;20060;-86
2023/08/02 00:37:22;;;;;;;7.43;1.70;;;15.20;99.90;;;;;;5017390;28;20088;-86
2023/08/02 00:39:55;;;;;;;5.88;1.60;;;15.20;99.90;;;;;;5033223;28;20413;-86
2023/08/02 00:42:22;;;;;;;2.70;1.08;;;15.30;99.90;;;;;;5034204;28;20054;-86
2023/08/02 00:44:48;;;;;;;8.20;1.40;;;15.20;99.90;;;;;;5033315;28;20046;-86
2023/08/02 00:47:16;;;;;;;6.80;1.67;;;15.30;99.90;;;;;;5017236;28;20037;-86
2023/08/02 00:49:45;;;;;;;3.42;1.00;;;15.20;99.90;;;;;;5033046;28;20088;-86
2023/08/02 00:52:12;;;;;;;2.10;1.10;;;15.30;99.90;;;;;;5033255;28;20038;-86
2023/08/02 00:54:41;;;;;;;3.75;1.13;;;15.30;99.90;;;;;;5016409;28;20038;-86
2023/08/02 00:57:09;;;;;;;3.15;1.20;;;15.30;99.90;;;;;;5032647;28;20065;-86
2023/08/02 00:59:42;;;;;;;3.47;1.27;;;15.30;99.90;;;;;;5033049;28;20041;-86
2023/08/02 01:02:09;;;;;;;3.55;1.40;;;15.30;99.90;;;;;;5032401;28;20495;-86
2023/08/02 01:04:37;;;;;;;7.47;1.17;;;15.30;99.90;;;;;;5032399;28;20081;-84
2023/08/02 01:07:19;;;;;;;5.00;1.35;;;15.30;99.90;;;;;;5032783;28;20049;-86
2023/08/02 01:10:04;;;;;;;6.03;1.38;;;15.30;99.90;;;;;;5032240;28;20120;-85
2023/08/02 01:12:33;;;;;;;2.92;1.40;;;15.30;99.90;;;;;;5032519;28;20490;-86
2023/08/02 01:15:03;;;;;;;5.28;1.63;;;15.30;99.90;;;;;;5032198;28;20667;-86
2023/08/02 01:17:31;;;;;;;7.57;1.83;;;15.30;99.90;;;;;;5016409;28;20053;-86
2023/08/02 01:20:03;;;;;;;4.38;1.80;;;15.30;99.90;;;;;;5016088;28;20123;-86
2023/08/02 01:22:30;;;;;;;9.88;2.08;;;15.30;99.90;;;;;;5031213;28;20038;-86
2023/08/02 01:24:59;;;;;;;4.85;1.80;;;15.30;99.90;;;;;;5000166;28;20624;-86
2023/08/02 01:27:34;;;;;;;5.03;2.03;;;15.30;99.90;;;;;;5000117;28;20528;-86
2023/08/02 01:30:03;;;;;;;4.68;1.88;;;15.30;99.90;;;;;;5031982;28;20494;-86
2023/08/02 01:32:30;;;;;;;7.15;2.00;;;15.30;99.90;;;;;;5032369;28;20045;-86
2023/08/02 01:34:57;;;;;;;7.25;3.03;;;15.40;99.90;;;;;;4999586;28;20042;-86
2023/08/02 01:37:24;;;;;;;5.15;2.33;;;15.30;99.90;;;;;;5032446;28;20041;-87
2023/08/02 01:39:50;;;;;;;7.32;2.30;;;15.30;99.90;;;;;;4999785;28;20522;-86
2023/08/02 01:42:18;;;;;;;6.35;2.20;;;15.40;99.90;;;;;;4999730;28;20144;-86
2023/08/02 01:44:48;;;;;;;4.40;2.13;;;15.40;99.90;;;;;;5015719;28;20831;-86
2023/08/02 01:47:16;;;;;;;6.60;3.13;;;15.40;99.90;;;;;;5048597;28;20045;-86
2023/08/02 01:49:42;;;;;;;6.18;2.15;;;15.40;99.90;;;;;;4999480;28;20410;-85
2023/08/02 01:52:09;;;;;;;9.43;2.47;;;15.30;99.90;;;;;;5048475;28;20038;-86
2023/08/02 01:54:36;;;;;;;8.20;2.78;;;15.40;99.90;;;;;;5031763;28;20042;-86
2023/08/02 01:57:03;;;;;;;8.68;2.83;;;15.40;99.90;;;;;;5031468;28;20046;-86
2023/08/02 01:59:30;;;;;;;5.43;2.40;;;15.30;99.90;;;;;;4999537;28;20038;-86
2023/08/02 02:01:56;;;;;;;9.63;2.72;;;15.40;99.90;;;;;;4999498;28;20042;-86
2023/08/02 02:04:23;;;;;;;8.73;3.08;;;15.40;99.90;;;;;;5015410;28;20030;-86
2023/08/02 02:06:50;;;;;;;7.18;2.83;;;15.30;99.90;;;;;;5047505;28;20038;-85
2023/08/02 02:09:16;;;;;;;6.68;2.60;;;15.40;99.90;;;;;;4999011;28;20046;-86
2023/08/02 02:11:43;;;;;;;5.68;2.60;;;15.40;99.90;;;;;;4998866;28;20545;-86
2023/08/02 02:14:13;;;;;;;5.28;2.83;;;15.40;99.90;;;;;;5006111;28;20050;-86
2023/08/02 02:16:39;;;;;;;5.72;2.58;;;15.40;99.90;;;;;;5031198;28;20612;-86
2023/08/02 02:19:06;;;;;;;5.78;2.30;;;15.40;99.90;;;;;;5014459;28;20042;-86
2023/08/02 02:21:33;;;;;;;9.70;3.17;;;15.40;99.90;;;;;;5015225;28;20037;-86
2023/08/02 02:24:00;;;;;;;8.68;2.78;;;15.40;99.90;;;;;;5030889;28;20045;-86
2023/08/02 02:26:26;;;;;;;10.15;2.80;;;15.30;99.90;;;;;;5031369;28;20046;-86
2023/08/02 02:28:53;;;;;;;10.07;3.05;;;15.40;99.90;;;;;;5014448;28;20120;-86
2023/08/02 02:31:20;;;;;;;4.28;2.20;;;15.40;99.90;;;;;;5014467;28;20085;-86
2023/08/02 02:33:47;;;;;;;5.70;2.78;;;15.40;99.90;;;;;;5014050;28;20077;-84
2023/08/02 02:36:14;;;;;;;7.60;2.88;;;15.40;99.90;;;;;;5014953;28;20092;-86
2023/08/02 02:38:40;;;;;;;7.50;3.17;;;15.30;99.90;;;;;;5014846;28;20056;-86
2023/08/02 02:41:07;;;;;;;8.13;2.90;;;15.30;99.90;;;;;;5014502;28;20041;-86
2023/08/02 02:43:34;;;;;;;7.45;2.80;;;15.30;99.90;;;;;;5031147;28;20041;-86
2023/08/02 02:46:00;;;;;;;8.48;3.15;;;15.30;99.90;;;;;;5030814;28;20042;-86
2023/08/02 02:48:27;;;;;;;9.63;2.83;;;15.30;99.90;;;;;;5014572;28;20439;-86
2023/08/02 02:50:54;;;;;;;9.15;3.00;;;15.30;99.90;;;;;;5014294;28;20038;-85
2023/08/02 02:53:22;;;;;;;6.35;2.75;;;15.30;99.90;;;;;;5014548;28;20132;-86
2023/08/02 02:55:51;;;;;;;6.97;2.53;;;15.30;99.90;;;;;;5030469;28;20038;-86
2023/08/02 02:58:18;;;;;;;8.43;2.80;;;15.30;99.90;;;;;;5030344;28;20046;-86
2023/08/02 03:00:48;;;;;;;11.05;2.92;;;15.30;99.90;;;;;;5014390;28;20052;-86
2023/08/02 03:03:14;;;;;;;9.23;2.80;;;15.30;99.90;;;;;;5030878;28;20042;-86
2023/08/02 03:05:41;;;;;;;8.48;2.83;;;15.30;99.90;;;;;;5014189;28;20052;-86
2023/08/02 03:08:08;;;;;;;6.20;2.42;;;15.30;99.90;;;;;;5014002;28;20038;-86
2023/08/02 03:10:34;;;;;;;5.18;2.40;;;15.30;99.90;;;;;;5030348;28;20034;-86
2023/08/02 03:13:01;;;;;;;7.75;2.67;;;15.30;99.90;;;;;;5013722;28;20045;-86
2023/08/02 03:15:28;;;;;;;11.05;2.90;;;15.20;99.90;;;;;;4998243;28;20486;-86
2023/08/02 03:17:54;;;;;;;8.30;2.90;;;15.20;99.90;;;;;;4997662;28;20896;-85
2023/08/02 03:20:21;;;;;;;10.15;2.90;;;15.20;99.90;;;;;;4998028;28;20128;-86
2023/08/02 03:22:48;;;;;;;10.73;3.15;;;15.20;99.90;;;;;;4998336;28;20046;-86
2023/08/02 03:25:15;;;;;;;10.85;2.85;;;15.20;99.90;;;;;;5029880;28;20045;-86
2023/08/02 03:27:42;;;;;;;6.03;2.45;;;15.20;99.90;;;;;;4998208;28;20076;-86
2023/08/02 03:30:09;;;;;;;8.40;2.80;;;15.20;99.90;;;;;;5029919;28;20387;-86
2023/08/02 03:32:36;;;;;;;7.22;2.97;;;15.20;99.90;;;;;;5030237;28;20052;-86
2023/08/02 03:35:03;;;;;;;7.13;3.25;;;15.20;99.90;;;;;;5046090;28;20128;-86
2023/08/02 03:37:29;;;;;;;10.70;3.20;;;15.20;99.90;;;;;;4997958;28;20048;-86
2023/08/02 03:39:56;;;;;;;9.02;2.83;;;15.20;99.90;;;;;;4997385;28;20088;-85
2023/08/02 03:42:23;;;;;;;11.18;2.92;;;15.20;99.90;;;;;;4997762;28;20049;-86
2023/08/02 03:44:49;;;;;;;10.48;3.13;;;15.20;99.90;;;;;;5029510;28;20553;-86
2023/08/02 03:47:17;;;;;;;10.38;3.03;;;15.20;99.90;;;;;;4997562;28;20070;-86
2023/08/02 03:49:44;;;;;;;11.95;2.85;;;15.20;99.90;;;;;;4997630;28;20556;-86
2023/08/02 03:52:10;;;;;;;12.00;3.25;;;15.20;99.90;;;;;;4997239;28;20038;-86
2023/08/02 03:54:38;;;;;;;14.40;2.85;;;15.20;99.90;;;;;;5029286;28;20042;-86
2023/08/02 03:57:05;;;;;;;8.07;3.20;;;15.20;99.90;;;;;;4997221;28;20045;-86
2023/08/02 03:59:31;;;;;;;12.40;3.47;;;15.20;99.90;;;;;;5013877;28;20042;-86
2023/08/02 04:01:58;;;;;;;17.75;3.50;;;15.20;99.90;;;;;;4997418;28;20052;-85
2023/08/02 04:04:25;;;;;;;9.30;2.97;;;15.20;99.90;;;;;;4997591;28;20060;-86
2023/08/02 04:06:52;;;;;;;12.57;3.63;;;15.30;99.90;;;;;;5029954;28;20038;-86
2023/08/02 04:09:18;;;;;;;14.07;3.90;;;15.20;99.90;;;;;;4997160;28;20050;-86
2023/08/02 04:11:45;;;;;;;15.68;3.75;;;15.20;99.90;;;;;;4997266;28;20132;-86
2023/08/02 04:14:12;;;;;;;8.60;3.28;;;15.20;99.90;;;;;;5023624;28;20119;-86
2023/08/02 04:16:39;;;;;;;12.15;4.00;;;15.20;99.90;;;;;;5013759;28;20045;-86
2023/08/02 04:19:06;;;;;;;14.38;3.55;;;15.20;99.90;;;;;;4997260;28;20115;-86
2023/08/02 04:21:33;;;;;;;14.13;3.60;;;15.20;99.90;;;;;;5013629;28;20041;-86
2023/08/02 04:24:00;;;;;;;15.27;3.92;;;15.20;99.90;;;;;;5029775;28;20041;-86
2023/08/02 04:26:27;;;;;;;13.88;3.60;;;15.20;99.90;;;;;;4997395;28;20096;-86
2023/08/02 04:28:54;;;;;;;14.75;3.60;;;15.20;99.90;;;;;;4997408;28;20471;-87
2023/08/02 04:31:20;;;;;;;15.85;4.30;;;15.20;99.90;;;;;;5029082;28;20096;-86
2023/08/02 04:33:48;;;;;;;14.65;4.55;;;15.20;99.90;;;;;;4997210;28;20129;-86
2023/08/02 04:36:14;;;;;;;11.23;4.82;;;15.20;99.90;;;;;;4997248;28;20410;-86
2023/08/02 04:38:41;;;;;;;13.82;4.13;;;15.20;99.90;;;;;;5013403;28;20121;-86
2023/08/02 04:41:14;;;;;;;11.25;3.90;;;15.20;99.90;;;;;;4997044;28;20045;-86
2023/08/02 04:43:41;;;;;;;9.63;3.60;;;15.20;99.90;;;;;;5029554;28;20042;-86
2023/08/02 04:46:08;;;;;;;14.43;4.00;;;15.20;99.90;;;;;;5012759;28;20449;-86
2023/08/02 04:48:35;;;;;;;9.75;4.13;;;15.20;99.90;;;;;;5029340;28;20100;-86
2023/08/02 04:51:09;;;;;;;18.00;3.50;;;15.20;99.90;;;;;;5029264;28;20037;-86
2023/08/02 04:53:36;;;;;;;14.27;3.95;;;15.20;99.90;;;;;;5029651;28;20038;-86
2023/08/02 04:56:10;;;;;;;10.85;3.90;;;15.20;99.90;;;;;;5013499;28;20038;-86
2023/08/02 04:58:37;;;;;;;12.50;4.70;;;15.20;99.90;;;;;;5033074;28;20100;-86
2023/08/02 05:01:04;;;;;;;11.27;4.03;;;15.20;99.90;;;;;;5032808;28;20046;-86
2023/08/02 05:03:35;;;;;;;13.18;4.55;;;15.10;99.90;;;;;;5032997;28;20473;-86
2023/08/02 05:06:03;;;;;;;10.05;3.88;;;15.20;99.90;;;;;;5000499;28;20045;-86
2023/08/02 05:08:32;;;;;;;12.82;4.10;;;15.20;99.90;;;;;;5016518;28;20042;-86
2023/08/02 05:10:59;;;;;;;11.20;4.00;;;15.20;99.90;;;;;;5036754;28;20041;-86
2023/08/02 05:13:27;;;;;;;10.77;3.70;;;15.20;99.90;;;;;;5052182;28;20049;-86
2023/08/02 05:15:54;;;;;;;13.32;4.05;;;15.20;99.90;;;;;;5069373;28;20048;-86
2023/08/02 05:18:21;;;;;;;19.60;4.50;;;15.20;99.90;;;;;;5052482;28;20195;-87
2023/08/02 05:20:49;;;;;;;11.93;3.85;;;15.20;99.90;;;;;;5052704;28;20127;-87
2023/08/02 05:23:16;;;;;;;12.80;3.85;;;15.20;99.90;;;;;;5049612;28;20056;-86
2023/08/02 05:25:43;;;;;;;13.20;4.45;;;15.10;99.90;;;;;;5032776;28;20034;-86
2023/08/02 05:28:10;;;;;;;9.48;4.22;;;15.10;99.90;;;;;;5015830;28;20046;-85
2023/08/02 05:30:37;;;;;;;13.10;4.15;;;15.10;99.90;;;;;;5032334;28;20823;-86
2023/08/02 05:33:06;;;;;;;9.15;4.45;;;15.20;99.90;;;;;;5016441;28;20073;-86
2023/08/02 05:35:33;;;;;;;10.98;4.50;;;15.20;99.90;;;;;;5016617;28;20129;-86
2023/08/02 05:37:59;;;;;;;17.27;4.82;;;15.20;99.90;;;;;;4999960;28;20845;-86
2023/08/02 05:40:26;;;;;;;11.32;4.22;;;15.20;99.90;;;;;;5012446;28;20046;-86
2023/08/02 05:42:53;;;;;;;13.07;4.32;;;15.20;99.90;;;;;;5052282;28;20045;-86
2023/08/02 05:45:20;;;;;;;14.82;4.28;;;15.20;99.90;;;;;;5051736;28;20042;-86
2023/08/02 05:47:49;;;;;;;10.13;4.13;;;15.20;99.90;;;;;;5035598;28;20084;-86
2023/08/02 05:50:16;;;;;;;11.63;4.13;;;15.20;99.90;;;;;;5051226;28;20038;-86
2023/08/02 05:52:43;;;;;;;8.85;4.50;;;15.20;99.90;;;;;;5035575;28;20505;-86
2023/08/02 05:55:09;;;;;;;10.25;4.45;;;15.30;99.90;;;;;;5019180;28;20033;-86
2023/08/02 05:57:36;;;;;;;13.93;4.78;;;15.40;99.90;;;;;;5034739;28;20041;-86
2023/08/02 06:00:03;;;;;;;11.20;4.25;;;15.40;99.90;;;;;;5035313;28;20545;-86
2023/08/02 06:02:30;;;;;;;12.40;4.90;;;15.50;99.90;;;;;;5019258;28;20820;-87
2023/08/02 06:04:56;;;;;;;11.32;4.15;;;15.60;99.90;;;;;;5019146;28;20049;-86
2023/08/02 06:07:23;;;;;;;13.73;4.22;;;15.50;99.90;;;;;;5050806;28;20099;-86
2023/08/02 06:09:50;;;;;;;15.52;4.93;;;15.60;99.90;;;;;;5018837;28;20071;-86
2023/08/02 06:12:16;;;;;;;10.57;4.78;;;15.50;99.90;;;;;;5018710;28;20044;-85
2023/08/02 06:14:43;;;;;;;12.25;5.07;;;15.70;99.90;;;;;;5018653;28;20066;-86
2023/08/02 06:17:10;;;;;;;10.48;4.55;;;15.70;99.90;;;;;;5016687;28;20046;-86
2023/08/02 06:19:37;;;;;;;9.68;3.92;;;15.70;99.90;;;;;;5031077;28;20116;-86
2023/08/02 06:22:04;;;;;;;11.02;4.43;;;15.80;99.90;;;;;;4999452;28;20096;-86
2023/08/02 06:24:31;;;;;;;9.10;4.40;;;15.90;99.90;;;;;;5031019;28;20442;-86
2023/08/02 06:26:58;;;;;;;13.18;3.97;;;16.00;99.90;;;;;;5015359;28;20513;-86
2023/08/02 06:29:24;;;;;;;10.93;3.92;;;16.10;99.90;;;;;;5047952;28;20037;-86
2023/08/02 06:31:51;;;;;;;12.07;4.43;;;16.10;99.90;;;;;;5018351;28;20041;-86
2023/08/02 06:34:18;;;;;;;9.13;4.07;;;16.20;99.90;;;;;;5051139;28;20497;-85
2023/08/02 06:36:44;;;;;;;10.98;3.97;;;16.20;99.90;;;;;;5051172;28;20045;-87
2023/08/02 06:39:11;;;;;;;10.77;4.35;;;16.20;99.90;;;;;;5050735;28;20129;-87
2023/08/02 06:41:38;;;;;;;7.93;3.72;;;16.20;99.90;;;;;;5034138;28;21206;-87
2023/08/02 06:44:05;;;;;;;7.60;3.78;;;16.30;99.90;;;;;;5018497;28;20038;-86
2023/08/02 06:46:33;;;;;;;10.95;3.97;;;16.30;99.90;;;;;;5034062;28;20426;-86
2023/08/02 06:49:00;;;;;;;11.13;4.30;;;16.40;99.90;;;;;;5051176;28;20037;-86
2023/08/02 06:51:27;;;;;;;10.25;4.05;;;16.40;99.90;;;;;;5050269;28;20045;-86
2023/08/02 06:53:57;;;;;;;11.60;4.13;;;16.40;99.90;;;;;;5007128;28;20045;-86
2023/08/02 06:56:24;;;;;;;10.13;4.03;;;16.50;99.90;;;;;;5013009;28;20116;-87
2023/08/02 06:58:51;;;;;;;11.57;4.03;;;16.50;99.90;;;;;;5053732;28;20128;-86
2023/08/02 07:01:20;;;;;;;11.20;3.92;;;16.50;99.90;;;;;;5050554;28;20130;-86
2023/08/02 07:03:47;;;;;;;11.30;3.67;;;16.60;99.90;;;;;;5042487;28;20064;-86
2023/08/02 07:06:16;;;;;;;10.32;4.18;;;16.70;99.90;;;;;;5031080;28;20065;-86
2023/08/02 07:08:43;;;;;;;8.70;3.45;;;16.70;99.90;;;;;;5030328;28;20070;-86
2023/08/02 07:11:11;;;;;;;9.43;3.80;;;16.80;99.90;;;;;;5013869;28;20049;-86
2023/08/02 07:13:41;;;;;;;9.50;3.80;;;16.70;99.90;;;;;;5029864;28;20093;-86
2023/08/02 07:16:08;;;;;;;8.93;3.95;;;16.80;99.90;;;;;;5014963;28;20038;-86
2023/08/02 07:18:34;;;;;;;9.57;3.65;;;16.80;99.90;;;;;;5014282;28;20045;-86
2023/08/02 07:21:09;;;;;;;11.10;3.45;;;16.80;99.90;;;;;;5013801;28;20052;-86
2023/08/02 07:23:39;;;;;;;9.73;3.80;;;16.80;99.90;;;;;;5029826;28;20041;-86
2023/08/02 07:26:06;;;;;;;11.40;3.60;;;16.80;99.90;;;;;;4998340;28;20330;-86
2023/08/02 07:28:32;;;;;;;10.75;3.42;;;16.80;99.90;;;;;;5013676;28;20483;-86
2023/08/02 07:31:10;;;;;;;9.45;3.45;;;16.80;99.90;;;;;;5013837;28;20549;-86
2023/08/02 07:33:37;;;;;;;10.07;3.38;;;16.80;99.90;;;;;;5029913;28;20042;-87
2023/08/02 07:36:04;;;;;;;12.45;3.92;;;16.90;99.90;;;;;;5013583;28;20096;-86
2023/08/02 07:38:31;;;;;;;9.20;3.13;;;16.90;99.90;;;;;;5046380;28;20045;-86
2023/08/02 07:41:02;;;;;;;7.75;2.85;;;17.00;99.90;;;;;;5013968;28;20052;-86
2023/08/02 07:43:28;;;;;;;7.43;2.90;;;17.10;99.90;;;;;;5013503;28;20053;-85
2023/08/02 07:45:55;;;;;;;9.82;2.85;;;17.00;99.90;;;;;;4997999;28;20045;-86
2023/08/02 07:48:22;;;;;;;10.25;3.13;;;17.00;99.90;;;;;;4997775;28;20048;-86
2023/08/02 07:50:48;;;;;;;9.95;3.10;;;17.10;99.90;;;;;;4997199;28;20085;-86
2023/08/02 07:53:15;;;;;;;9.95;2.80;;;17.10;99.90;;;;;;4997362;28;20164;-86
2023/08/02 07:55:42;;;;;;;5.95;2.78;;;17.00;99.90;;;;;;5013319;28;20042;-85
2023/08/02 07:58:09;;;;;;;6.22;2.60;;;17.10;99.90;;;;;;5014106;28;20033;-86
2023/08/02 08:00:36;;;;;;;7.65;2.63;;;17.10;99.90;;;;;;4997558;28;20137;-86
2023/08/02 08:03:03;;;;;;;9.02;2.60;;;17.10;99.90;;;;;;5013314;28;20568;-86
2023/08/02 08:05:30;;;;;;;7.28;2.60;;;17.10;99.90;;;;;;4997534;28;20068;-84
2023/08/02 08:07:57;;;;;;;10.15;2.83;;;17.10;99.90;;;;;;5013557;28;20042;-86
2023/08/02 08:10:25;;;;;;;6.13;2.42;;;17.00;99.90;;;;;;5013800;28;20089;-87
2023/08/02 08:12:52;;;;;;;8.70;2.92;;;17.00;99.90;;;;;;4997339;28;20081;-86
2023/08/02 08:15:18;;;;;;;11.48;3.25;;;17.00;99.90;;;;;;5049027;28;20089;-87
2023/08/02 08:17:48;;;;;;;10.15;3.17;;;16.90;99.90;;;;;;5016842;28;20037;-87
2023/08/02 08:20:15;;;;;;;9.07;3.22;;;17.00;99.90;;;;;;5017066;28;20493;-86
2023/08/02 08:22:47;;;;;;;6.35;3.03;;;16.90;99.90;;;;;;5016832;28;20124;-85
2023/08/02 08:25:14;;;;;;;7.38;2.80;;;16.80;99.90;;;;;;5049652;28;20041;-86
2023/08/02 08:27:41;;;;;;;9.23;3.35;;;16.80;99.90;;;;;;5016546;28;20063;-86
2023/08/02 08:30:08;;;;;;;7.57;2.88;;;16.80;99.90;;;;;;5049794;28;20391;-86
2023/08/02 08:32:35;;;;;;;7.20;2.75;;;16.70;99.90;;;;;;5036051;28;20048;-85
2023/08/02 08:35:03;;;;;;;12.73;2.90;;;16.70;99.90;;;;;;5037017;28;20501;-86
2023/08/02 08:37:32;;;;;;;11.65;3.40;;;16.60;99.90;;;;;;5053118;28;20041;-86
2023/08/02 08:39:59;;;;;;;11.15;3.38;;;16.60;99.90;;;;;;5052714;28;20044;-85
2023/08/02 08:42:26;;;;;;;7.85;3.20;;;16.50;99.90;;;;;;5020936;28;20044;-85
2023/08/02 08:44:55;;;;;;;8.35;2.75;;;16.40;99.90;;;;;;5019920;28;20037;-85
2023/08/02 08:47:22;;;;;;;11.00;3.58;;;16.30;99.90;;;;;;5052803;28;20075;-85
2023/08/02 08:49:49;;;;;;;5.50;3.10;;;16.30;99.90;;;;;;5036011;28;20045;-85
2023/08/02 08:52:18;;;;;;;7.88;3.70;;;16.20;99.90;;;;;;5020485;28;20037;-85
2023/08/02 08:54:50;;;;;;;7.35;3.30;;;16.20;99.90;;;;;;5036382;28;20120;-86
2023/08/02 08:57:17;;;;;;;10.80;3.63;;;16.20;99.90;;;;;;5020386;28;20075;-86
2023/08/02 08:59:44;;;;;;;8.73;3.63;;;16.00;99.90;;;;;;5019924;28;20482;-86
2023/08/02 09:02:12;;;;;;;9.30;3.42;;;16.00;99.90;;;;;;5020315;28;20069;-86
2023/08/02 09:04:40;;;;;;;13.05;3.65;;;15.90;99.90;;;;;;5052778;28;20047;-85
2023/08/02 09:07:07;;;;;;;8.07;3.70;;;15.90;99.90;;;;;;5052252;28;20041;-86
2023/08/02 09:09:35;;;;;;;9.45;3.33;;;15.80;99.90;;;;;;5036664;28;20080;-86
2023/08/02 09:12:02;;;;;;;13.60;3.80;;;16.00;99.90;;;;;;5019825;28;20042;-86
2023/08/02 09:14:29;;;;;;;8.70;3.75;;;15.70;99.90;;;;;;5020196;28;20049;-86
2023/08/02 09:16:59;;;;;;;7.90;3.70;;;15.70;99.90;;;;;;5004249;28;20053;-87
2023/08/02 09:19:34;;;;;;;9.65;3.92;;;15.70;99.90;;;;;;5052762;28;20132;-87
2023/08/02 09:22:12;;;;;;;12.57;3.92;;;15.60;99.90;;;;;;5036122;28;20135;-87
2023/08/02 09:24:40;;;;;;;7.70;3.35;;;15.70;99.90;;;;;;5053095;28;20041;-87
2023/08/02 09:27:14;;;;;;;8.90;3.50;;;15.60;99.90;;;;;;5036738;28;20038;-87
2023/08/02 09:30:01;;;;;;;9.63;3.33;;;15.70;99.90;;;;;;5053039;28;20044;-86
2023/08/02 09:32:28;;;;;;;10.32;3.80;;;15.70;99.90;;;;;;5052391;28;20103;-86
2023/08/02 09:34:57;;;;;;;7.30;3.50;;;15.70;99.90;;;;;;5019528;28;20472;-86
2023/08/02 09:37:29;;;;;;;10.80;3.83;;;15.70;99.90;;;;;;5052324;28;20037;-86
2023/08/02 09:39:56;;;;;;;11.23;3.80;;;15.80;99.90;;;;;;5052432;28;20041;-87
2023/08/02 09:42:25;;;;;;;10.38;3.72;;;15.80;99.90;;;;;;5020228;28;20038;-87
2023/08/02 09:44:54;;;;;;;10.10;3.63;;;15.80;99.90;;;;;;5036200;28;20037;-87
2023/08/02 09:47:21;;;;;;;13.32;3.33;;;15.90;99.90;;;;;;5052632;28;20486;-88
2023/08/02 09:50:08;;;;;;;13.48;3.28;;;15.90;99.90;;;;;;5019792;28;20040;-87
2023/08/02 09:52:39;;;;;;;9.45;3.00;;;15.90;99.90;;;;;;5053039;28;20401;-87
2023/08/02 09:55:07;;;;;;;8.57;3.80;;;16.00;99.90;;;;;;5035702;28;20149;-87
2023/08/02 09:57:34;;;;;;;10.40;3.70;;;16.00;99.90;;;;;;5052632;28;20444;-86
2023/08/02 10:00:06;;;;;;;8.75;3.78;;;16.00;99.90;;;;;;5036146;28;20095;-87
2023/08/02 10:02:35;;;;;;;12.65;4.18;;;16.00;99.90;;;;;;5052152;28;20396;-87
2023/08/02 10:05:03;;;;;;;7.18;3.60;;;16.10;99.90;;;;;;5035922;28;20555;-88
2023/08/02 10:07:53;;;;;;;11.68;3.70;;;16.20;99.90;;;;;;5019712;28;20110;-87
2023/08/02 10:10:32;;;;;;;9.88;4.18;;;16.30;99.90;;;;;;5023271;28;20104;-87
2023/08/02 10:13:08;;;;;;;7.38;3.70;;;16.40;99.90;;;;;;5051587;28;20034;-87
2023/08/02 10:15:40;;;;;;;;;;;16.50;99.90;;;;;;5052194;28;20094;-87
2023/08/02 10:18:08;;;;;;;7.47;4.05;;;16.50;99.90;;;;;;5051557;28;19921;-87
2023/08/02 10:20:36;;;;;;;9.95;3.88;;;16.50;99.90;;;;;;5052302;28;20037;-87
2023/08/02 10:23:05;;;;;;;10.98;4.20;;;16.40;99.90;;;;;;5019190;28;20124;-87
2023/08/02 10:25:33;;;;;;;10.30;4.32;;;16.50;99.90;;;;;;5036053;28;20496;-87
2023/08/02 10:28:00;;;;;;;8.65;3.75;;;16.60;99.90;;;;;;5019275;28;20037;-87
2023/08/02 10:30:31;;;;;;;8.40;4.10;;;16.60;99.90;;;;;;5019001;28;20049;-87
2023/08/02 10:33:30;;;;;;;7.88;3.88;;;16.60;99.90;;;;;;5051135;28;20508;-87
2023/08/02 10:35:58;;;;;;;9.40;3.80;;;16.60;99.90;;;;;;4982688;28;20577;-87
2023/08/02 10:38:37;;;;;;;7.60;3.33;;;16.60;99.90;;;;;;5068569;28;20033;-87
2023/08/02 10:41:07;;;;;;;10.10;3.97;;;16.60;99.90;;;;;;5051629;28;20041;-87
2023/08/02 10:43:34;;;;;;;5.88;3.10;;;16.60;99.90;;;;;;5019194;28;20119;-87
2023/08/02 10:46:27;;;;;;;9.20;3.55;;;16.60;99.90;;;;;;5035617;28;20041;-88
2023/08/02 10:49:17;;;;;;;6.05;3.20;;;16.60;99.90;;;;;;5019185;28;20128;-86
2023/08/02 10:51:45;;;;;;;6.38;3.08;;;16.50;99.90;;;;;;5014221;28;20560;-87
2023/08/02 10:54:21;;;;;;;7.28;3.17;;;16.60;99.90;;;;;;5018587;28;20067;-87
2023/08/02 10:56:54;;;;;;;4.85;2.83;;;16.70;99.90;;;;;;5051262;28;20052;-88
2023/08/02 10:59:24;;;;;;;8.93;3.00;;;16.60;99.90;;;;;;5051319;28;20041;-88
2023/08/02 11:02:02;;;;;;;5.53;2.78;;;16.60;99.90;;;;;;5051054;28;20474;-87
2023/08/02 11:04:30;;;;;;;6.93;2.90;;;16.60;99.90;;;;;;5034603;28;20041;-88
2023/08/02 11:07:14;;;;;;;5.53;2.95;;;16.50;99.90;;;;;;5051511;28;20045;-88
2023/08/02 11:09:41;;;;;;;4.05;2.22;;;16.50;99.90;;;;;;5051150;28;20069;-88
2023/08/02 11:12:18;;;;;;;4.90;2.35;;;16.50;99.90;;;;;;5034254;28;20068;-88
2023/08/02 11:14:47;;;;;;;5.65;2.50;;;16.50;99.90;;;;;;5050905;28;20132;-88
2023/08/02 11:17:22;;;;;;;6.25;2.42;;;16.60;99.90;;;;;;5067285;28;20441;-88
2023/08/02 11:19:51;;;;;;;4.70;2.55;;;16.60;99.90;;;;;;5051467;28;20099;-89
2023/08/02 11:22:18;;;;;;;4.57;2.28;;;16.60;99.90;;;;;;5050516;28;20049;-88
2023/08/02 11:24:51;;;;;;;6.35;2.10;;;16.60;99.90;;;;;;5050847;28;20104;-88
2023/08/02 11:27:23;;;;;;;3.50;2.10;;;16.70;99.90;;;;;;5050977;28;20053;-86
2023/08/02 11:30:05;;;;;;;4.97;1.95;;;16.70;99.90;;;;;;5050943;28;20044;-88
2023/08/02 11:32:32;;;;;;;3.55;2.00;;;16.70;99.90;;;;;;5050586;28;20041;-87
2023/08/02 11:34:59;;;;;;;6.32;2.00;;;16.70;99.90;;;;;;5050766;28;20038;-85
2023/08/02 11:37:27;;;;;;;4.55;2.00;;;16.70;99.90;;;;;;5050530;28;20037;-88
2023/08/02 11:39:56;;;;;;;3.22;2.00;;;16.70;99.90;;;;;;5050977;28;20048;-88
2023/08/02 11:42:24;;;;;;;5.18;1.90;;;16.60;99.90;;;;;;5050750;28;20048;-88
2023/08/02 11:44:50;;;;;;;4.78;1.70;;;16.70;99.90;;;;;;5050733;28;20042;-88
2023/08/02 11:47:17;;;;;;;4.95;1.88;;;16.60;99.90;;;;;;5034107;28;20080;-87
2023/08/02 11:49:59;;;;;;;5.68;1.92;;;16.70;99.90;;;;;;5050501;28;20125;-88
2023/08/02 11:52:31;;;;;;;3.47;1.80;;;16.80;99.90;;;;;;5050699;28;20049;-88
2023/08/02 11:54:58;;;;;;;3.28;1.63;;;16.90;99.90;;;;;;5050699;28;20045;-88
2023/08/02 11:57:26;;;;;;;2.95;1.50;;;17.00;99.90;;;;;;5050296;28;20053;-88
2023/08/02 11:59:59;;;;;;;4.20;1.90;;;17.10;99.90;;;;;;5034493;28;20479;-88
2023/08/02 12:02:31;;;;;;;3.78;1.73;;;17.10;99.90;;;;;;5050104;28;20474;-87
2023/08/02 12:05:05;;;;;;;2.60;1.23;;;17.10;99.90;;;;;;5033777;28;20587;-88
2023/08/02 12:07:33;;;;;;;3.88;1.40;;;17.10;99.90;;;;;;5049792;28;20045;-87
2023/08/02 12:10:04;;;;;;;2.47;1.00;;;17.10;99.90;;;;;;5033983;28;20041;-88
2023/08/02 12:12:34;;;;;;;2.28;1.17;;;17.10;99.90;;;;;;5050037;28;20041;-88
2023/08/02 12:15:14;;;;;;;1.80;1.00;;;17.10;99.90;;;;;;5064019;28;20136;-88
2023/08/02 12:17:40;;;;;;;2.83;1.40;;;17.20;99.90;;;;;;5050309;28;20564;-88
2023/08/02 12:20:08;;;;;;;2.50;1.10;;;17.20;99.90;;;;;;5033660;28;20037;-87
2023/08/02 12:22:50;;;;;;;2.15;1.20;;;17.10;99.90;;;;;;5050702;28;20478;-87
2023/08/02 12:25:17;;;;;;;2.47;1.15;;;17.20;99.90;;;;;;5033507;28;20505;-88
2023/08/02 12:28:05;;;;;;;1.55;0.88;;;17.20;99.90;;;;;;5033765;28;20037;-88
2023/08/02 12:30:32;;;;;;;2.33;0.93;;;17.30;99.90;;;;;;5049922;28;20068;-88
2023/08/02 12:32:59;;;;;;;2.75;1.20;;;17.40;99.90;;;;;;5034240;28;20057;-87
2023/08/02 12:35:26;;;;;;;2.35;1.13;;;17.60;99.90;;;;;;5033604;28;20122;-88
2023/08/02 12:37:52;;;;;;;5.93;1.10;;;17.70;99.90;;;;;;5050288;28;20037;-88
2023/08/02 12:40:20;;;;;;;2.20;1.10;;;17.90;99.90;;;;;;5017377;28;20443;-87
2023/08/02 12:42:46;;;;;;;1.95;1.13;;;17.90;99.90;;;;;;5050341;28;20049;-87
2023/08/02 12:45:13;;;;;;;2.13;1.20;;;18.10;99.90;;;;;;5017275;28;20052;-87
2023/08/02 12:47:40;;;;;;;2.00;1.08;;;18.20;99.90;;;;;;5017190;28;20091;-87
2023/08/02 12:50:07;;;;;;;3.65;1.27;;;18.20;99.90;;;;;;5017197;28;20049;-87